createdAt,value
2017-06-12T00:01:21.446Z,4.53
2017-06-12T00:03:48.238Z,4.87
2017-06-12T00:06:14.200Z,4.67
2017-06-12T00:08:40.186Z,4.97
2017-06-12T00:11:06.955Z,5.00
2017-06-12T00:13:32.958Z,4.37
2017-06-12T00:15:58.927Z,4.70
2017-06-12T00:18:24.954Z,4.70
2017-06-12T00:20:51.728Z,4.70
2017-06-12T00:23:17.690Z,4.90
2017-06-12T00:25:44.394Z,4.90
2017-06-12T00:28:10.661Z,4.90
2017-06-12T00:30:36.618Z,5.37
2017-06-12T00:33:02.599Z,4.60
2017-06-12T00:35:28.595Z,4.70
2017-06-12T00:37:54.618Z,4.83
2017-06-12T00:40:20.613Z,5.27
2017-06-12T00:42:46.626Z,4.97
2017-06-12T00:45:12.622Z,5.03
2017-06-12T00:47:38.635Z,5.30
2017-06-12T00:50:04.623Z,5.23
2017-06-12T00:52:30.598Z,4.80
2017-06-12T00:54:56.634Z,5.30
2017-06-12T00:57:22.610Z,4.50
2017-06-12T00:59:48.574Z,5.03
2017-06-12T01:02:14.582Z,5.13
2017-06-12T01:04:40.541Z,4.90
2017-06-12T01:07:06.495Z,5.33
2017-06-12T01:09:32.502Z,4.57
2017-06-12T01:11:58.484Z,4.80
2017-06-12T01:14:25.198Z,5.60
2017-06-12T01:16:51.194Z,5.00
2017-06-12T01:19:17.156Z,4.50
2017-06-12T01:21:55.606Z,4.67
2017-06-12T01:24:21.573Z,4.93
2017-06-12T01:26:47.530Z,5.57
2017-06-12T01:29:14.279Z,5.30
2017-06-12T01:31:40.312Z,5.33
2017-06-12T01:34:06.298Z,4.70
2017-06-12T01:36:32.302Z,4.60
2017-06-12T01:38:58.278Z,4.73
2017-06-12T01:41:24.258Z,5.00
2017-06-12T01:43:50.250Z,4.80
2017-06-12T01:46:16.217Z,5.20
2017-06-12T01:48:42.967Z,4.70
2017-06-12T01:51:08.931Z,5.07
2017-06-12T01:53:34.886Z,4.97
2017-06-12T01:56:00.869Z,5.27
2017-06-12T01:58:27.584Z,4.83
2017-06-12T02:00:53.603Z,4.37
2017-06-12T02:03:20.377Z,5.23
2017-06-12T02:05:46.370Z,4.90
2017-06-12T02:08:12.365Z,5.20
2017-06-12T02:10:38.349Z,4.47
2017-06-12T02:13:04.357Z,5.47
2017-06-12T02:15:30.321Z,5.50
2017-06-12T02:17:56.289Z,4.10
2017-06-12T02:20:23.044Z,4.80
2017-06-12T02:22:48.998Z,4.43
2017-06-12T02:25:14.970Z,4.33
2017-06-12T02:27:40.966Z,5.33
2017-06-12T02:30:06.914Z,4.83
2017-06-12T02:32:32.896Z,4.57
2017-06-12T02:34:58.857Z,4.97
2017-06-12T02:37:25.621Z,4.33
2017-06-12T02:39:51.605Z,4.70
2017-06-12T02:42:18.306Z,4.50
2017-06-12T02:44:44.325Z,4.80
2017-06-12T02:47:10.298Z,4.33
2017-06-12T02:49:36.249Z,4.67
2017-06-12T02:52:03.012Z,4.77
2017-06-12T02:54:28.998Z,5.33
2017-06-12T02:56:55.049Z,5.33
2017-06-12T02:59:21.009Z,4.50
2017-06-12T03:01:47.717Z,5.53
2017-06-12T03:04:13.727Z,4.93
2017-06-12T03:06:40.417Z,4.37
2017-06-12T03:09:06.434Z,3.80
2017-06-12T03:11:32.388Z,4.57
2017-06-12T03:13:59.097Z,4.53
2017-06-12T03:16:25.894Z,4.77
2017-06-12T03:18:51.897Z,4.70
2017-06-12T03:21:17.888Z,4.83
2017-06-12T03:23:43.837Z,4.40
2017-06-12T03:26:09.855Z,4.83
2017-06-12T03:28:35.837Z,4.83
2017-06-12T03:31:01.790Z,4.67
2017-06-12T03:33:28.526Z,4.80
2017-06-12T03:35:54.514Z,4.90
2017-06-12T03:38:21.680Z,4.90
2017-06-12T03:40:47.636Z,4.73
2017-06-12T03:43:13.605Z,4.60
2017-06-12T03:45:39.593Z,4.37
2017-06-12T03:48:05.545Z,4.50
2017-06-12T03:50:31.584Z,4.47
2017-06-12T03:52:57.603Z,4.70
2017-06-12T03:55:24.328Z,4.40
2017-06-12T03:57:51.069Z,5.23
2017-06-12T04:00:17.805Z,4.33
2017-06-12T04:02:43.756Z,4.30
2017-06-12T04:05:09.750Z,3.60
2017-06-12T04:07:35.710Z,3.50
2017-06-12T04:10:02.435Z,3.70
2017-06-12T04:12:29.146Z,3.57
2017-06-12T04:14:55.170Z,3.07
2017-06-12T04:17:21.877Z,3.20
2017-06-12T04:19:47.937Z,3.17
2017-06-12T04:22:13.973Z,3.17
2017-06-12T04:24:39.949Z,3.60
2017-06-12T04:27:05.998Z,3.77
2017-06-12T04:29:31.953Z,3.50
2017-06-12T04:31:57.966Z,3.70
2017-06-12T04:34:23.989Z,4.50
2017-06-12T04:36:49.952Z,3.50
2017-06-12T04:39:15.985Z,2.83
2017-06-12T04:41:42.671Z,2.97
2017-06-12T04:44:08.625Z,3.10
2017-06-12T04:46:34.646Z,3.80
2017-06-12T04:49:00.649Z,3.30
2017-06-12T04:51:26.689Z,3.00
2017-06-12T04:53:52.652Z,3.03
2017-06-12T04:56:19.372Z,3.20
2017-06-12T04:58:46.062Z,2.97
2017-06-12T05:01:12.106Z,3.20
2017-06-12T05:03:38.802Z,3.47
2017-06-12T05:06:04.749Z,3.00
2017-06-12T05:08:30.739Z,3.30
2017-06-12T05:10:56.698Z,3.10
2017-06-12T05:13:22.689Z,3.70
2017-06-12T05:15:49.431Z,3.40
2017-06-12T05:18:15.417Z,3.90
2017-06-12T05:20:41.368Z,3.40
2017-06-12T05:23:07.325Z,3.20
2017-06-12T05:25:33.314Z,3.40
2017-06-12T05:27:59.262Z,4.20
2017-06-12T05:30:25.989Z,4.03
2017-06-12T05:32:51.957Z,4.10
2017-06-12T05:35:17.981Z,3.33
2017-06-12T05:37:43.973Z,4.80
2017-06-12T05:40:09.979Z,4.67
2017-06-12T05:42:35.984Z,4.67
2017-06-12T05:45:01.933Z,5.67
2017-06-12T05:47:28.633Z,5.00
2017-06-12T05:49:54.627Z,4.80
2017-06-12T05:52:20.626Z,4.63
2017-06-12T05:54:46.572Z,3.93
2017-06-12T05:57:12.566Z,4.50
2017-06-12T05:59:38.518Z,3.40
2017-06-12T06:02:04.540Z,4.37
2017-06-12T06:04:30.549Z,4.10
2017-06-12T06:06:56.502Z,4.17
2017-06-12T06:09:22.517Z,3.30
2017-06-12T06:11:48.473Z,4.87
2017-06-12T06:14:14.416Z,4.20
2017-06-12T06:16:40.393Z,4.30
2017-06-12T06:19:06.341Z,3.90
2017-06-12T06:21:32.366Z,4.70
2017-06-12T06:23:58.314Z,4.40
2017-06-12T06:26:24.273Z,3.90
2017-06-12T06:28:50.289Z,4.57
2017-06-12T06:31:16.241Z,4.30
2017-06-12T06:33:42.219Z,4.53
2017-06-12T06:36:08.910Z,5.17
2017-06-12T06:38:34.935Z,4.00
2017-06-12T06:41:00.933Z,4.53
2017-06-12T06:43:26.885Z,4.80
2017-06-12T06:45:52.914Z,4.93
2017-06-12T06:48:18.940Z,4.63
2017-06-12T06:50:44.893Z,4.77
2017-06-12T06:53:10.885Z,4.57
2017-06-12T06:55:36.842Z,5.30
2017-06-12T06:58:02.803Z,5.00
2017-06-12T07:00:28.804Z,4.87
2017-06-12T07:02:54.753Z,5.30
2017-06-12T07:05:20.771Z,5.27
2017-06-12T07:07:46.766Z,5.20
2017-06-12T07:10:12.769Z,5.67
2017-06-12T07:12:38.765Z,5.40
2017-06-12T07:15:04.733Z,5.30
2017-06-12T07:17:30.725Z,5.80
2017-06-12T07:19:56.718Z,6.00
2017-06-12T07:22:22.670Z,5.07
2017-06-12T07:24:48.693Z,6.00
2017-06-12T07:27:14.669Z,6.10
2017-06-12T07:29:40.621Z,6.00
2017-06-12T07:32:06.603Z,6.53
2017-06-12T07:34:32.553Z,5.30
2017-06-12T07:36:59.285Z,5.50
2017-06-12T07:39:25.229Z,6.40
2017-06-12T07:41:51.198Z,5.80
2017-06-12T07:44:17.957Z,7.57
2017-06-12T07:46:43.939Z,8.20
2017-06-12T07:49:10.710Z,8.13
2017-06-12T07:51:36.665Z,8.00
2017-06-12T07:54:03.375Z,7.17
2017-06-12T07:56:29.366Z,7.10
2017-06-12T07:58:55.318Z,7.70
2017-06-12T08:01:21.382Z,7.93
2017-06-12T08:03:47.372Z,7.87
2017-06-12T08:06:13.341Z,8.47
2017-06-12T08:08:40.145Z,8.07
2017-06-12T08:11:06.128Z,8.20
2017-06-12T08:13:32.080Z,8.47
2017-06-12T08:15:58.808Z,7.80
2017-06-12T08:18:25.517Z,7.53
2017-06-12T08:20:52.276Z,8.00
2017-06-12T08:23:18.245Z,7.23
2017-06-12T08:25:44.252Z,7.93
2017-06-12T08:28:10.241Z,8.37
2017-06-12T08:30:36.192Z,7.40
2017-06-12T08:33:02.930Z,8.37
2017-06-12T08:35:28.908Z,8.07
2017-06-12T08:37:54.854Z,8.43
2017-06-12T08:40:20.905Z,8.50
2017-06-12T08:42:46.889Z,7.37
2017-06-12T08:45:12.847Z,7.40
2017-06-12T08:47:39.617Z,8.60
2017-06-12T08:50:05.569Z,7.20
2017-06-12T08:52:31.585Z,8.37
2017-06-12T08:54:57.539Z,8.70
2017-06-12T08:57:23.510Z,7.60
2017-06-12T08:59:50.262Z,9.07
2017-06-12T09:02:16.213Z,9.30
2017-06-12T09:04:42.164Z,8.77
2017-06-12T09:07:08.904Z,8.60
2017-06-12T09:09:34.861Z,8.97
2017-06-12T09:12:01.141Z,8.90
2017-06-12T09:14:27.089Z,8.10
2017-06-12T09:16:53.038Z,9.50
2017-06-12T09:19:19.062Z,8.70
2017-06-12T09:21:45.026Z,9.13
2017-06-12T09:24:11.009Z,8.53
2017-06-12T09:26:36.978Z,8.83
2017-06-12T09:29:02.964Z,8.70
2017-06-12T09:31:28.913Z,8.70
2017-06-12T09:33:54.889Z,7.47
2017-06-12T09:36:21.620Z,6.30
2017-06-12T09:38:47.625Z,6.40
2017-06-12T09:41:13.585Z,5.30
2017-06-12T09:43:39.537Z,5.70
2017-06-12T09:46:06.257Z,4.33
2017-06-12T09:48:32.953Z,3.10
2017-06-12T09:50:58.934Z,2.23
2017-06-12T09:53:24.916Z,2.37
2017-06-12T09:55:50.897Z,1.90
2017-06-12T09:58:17.674Z,1.70
2017-06-12T10:00:43.624Z,2.10
2017-06-12T10:03:09.582Z,1.50
2017-06-12T10:05:35.614Z,2.43
2017-06-12T10:08:01.570Z,2.40
2017-06-12T10:10:28.262Z,2.20
2017-06-12T10:12:54.263Z,2.00
2017-06-12T10:15:20.331Z,2.20
2017-06-12T10:17:46.304Z,2.20
2017-06-12T10:20:12.284Z,2.63
2017-06-12T10:22:38.237Z,2.50
2017-06-12T10:25:04.973Z,2.67
2017-06-12T10:27:31.669Z,2.30
2017-06-12T10:29:57.621Z,2.70
2017-06-12T10:32:23.688Z,2.40
2017-06-12T10:34:49.690Z,2.60
2017-06-12T10:37:15.645Z,2.00
2017-06-12T10:39:41.637Z,2.60
2017-06-12T10:42:07.652Z,2.93
2017-06-12T10:44:34.341Z,2.60
2017-06-12T10:47:00.304Z,3.43
2017-06-12T10:49:26.298Z,3.20
2017-06-12T10:51:52.289Z,2.77
2017-06-12T10:54:19.013Z,3.07
2017-06-12T10:56:45.754Z,2.60
2017-06-12T10:59:12.446Z,3.30
2017-06-12T11:01:38.438Z,2.47
2017-06-12T11:04:04.426Z,2.97
2017-06-12T11:06:30.428Z,3.10
2017-06-12T11:08:56.418Z,3.27
2017-06-12T11:11:22.361Z,3.20
2017-06-12T11:13:48.433Z,2.90
2017-06-12T11:16:15.125Z,3.20
2017-06-12T11:18:41.070Z,3.30
2017-06-12T11:21:07.079Z,2.90
2017-06-12T11:23:33.089Z,2.97
2017-06-12T11:25:59.048Z,3.83
2017-06-12T11:28:25.001Z,3.23
2017-06-12T11:30:51.039Z,3.10
2017-06-12T11:33:16.989Z,3.37
2017-06-12T11:35:42.946Z,3.47
2017-06-12T11:38:08.932Z,3.23
2017-06-12T11:40:35.673Z,3.20
2017-06-12T11:43:01.701Z,2.70
2017-06-12T11:45:27.681Z,3.20
2017-06-12T11:47:53.705Z,3.07
2017-06-12T11:50:19.702Z,3.70
2017-06-12T11:52:45.693Z,3.83
2017-06-12T11:55:12.433Z,3.57
2017-06-12T11:57:38.386Z,3.30
2017-06-12T12:00:04.341Z,3.60
2017-06-12T12:02:31.065Z,3.80
2017-06-12T12:04:57.757Z,3.70
2017-06-12T12:07:23.777Z,3.47
2017-06-12T12:09:49.743Z,3.83
2017-06-12T12:12:15.688Z,2.90
2017-06-12T12:14:41.672Z,3.40
2017-06-12T12:17:07.633Z,3.43
2017-06-12T12:19:34.366Z,3.37
2017-06-12T12:22:00.361Z,3.50
2017-06-12T12:24:27.054Z,3.77
2017-06-12T12:26:53.170Z,3.50
2017-06-12T12:29:19.177Z,3.63
2017-06-12T12:31:45.125Z,3.33
2017-06-12T12:34:11.898Z,3.63
2017-06-12T12:36:37.855Z,4.00
2017-06-12T12:39:04.537Z,3.20
2017-06-12T12:41:30.560Z,3.33
2017-06-12T12:43:56.516Z,3.13
2017-06-12T12:46:22.472Z,3.33
2017-06-12T12:48:48.509Z,3.70
2017-06-12T12:51:15.196Z,3.37
2017-06-12T12:53:41.149Z,2.80
2017-06-12T12:56:07.925Z,3.13
2017-06-12T12:58:33.929Z,3.00
2017-06-12T13:00:59.886Z,2.80
2017-06-12T13:03:25.840Z,3.43
2017-06-12T13:05:51.858Z,3.00
2017-06-12T13:08:17.810Z,2.70
2017-06-12T13:10:44.509Z,3.43
2017-06-12T13:13:10.493Z,3.67
2017-06-12T13:15:36.437Z,2.90
2017-06-12T13:18:02.433Z,3.30
2017-06-12T13:20:28.409Z,3.30
2017-06-12T13:22:54.360Z,3.73
2017-06-12T13:25:20.353Z,3.80
2017-06-12T13:27:46.306Z,3.33
2017-06-12T13:30:13.077Z,3.60
2017-06-12T13:32:39.040Z,3.57
2017-06-12T13:35:05.749Z,3.57
2017-06-12T13:37:31.725Z,3.27
2017-06-12T13:39:57.677Z,3.20
2017-06-12T13:42:24.402Z,3.00
2017-06-12T13:44:51.119Z,3.83
2017-06-12T13:47:17.147Z,3.60
2017-06-12T13:49:43.842Z,3.40
2017-06-12T13:52:09.857Z,3.07
2017-06-12T13:54:35.815Z,3.10
2017-06-12T13:57:01.805Z,3.50
2017-06-12T13:59:27.845Z,2.90
2017-06-12T14:01:53.925Z,3.20
2017-06-12T14:04:20.037Z,3.20
2017-06-12T14:06:46.017Z,3.33
2017-06-12T14:09:12.009Z,3.50
2017-06-12T14:11:38.027Z,3.20
2017-06-12T14:14:04.005Z,3.20
2017-06-12T14:16:29.957Z,3.70
2017-06-12T14:18:56.693Z,3.17
2017-06-12T14:21:23.429Z,3.60
2017-06-12T14:23:49.502Z,3.10
2017-06-12T14:26:15.452Z,3.30
2017-06-12T14:28:41.473Z,3.40
2017-06-12T14:31:07.486Z,3.47
2017-06-12T14:33:35.094Z,4.20
2017-06-12T14:36:02.184Z,3.83
2017-06-12T14:38:28.157Z,3.10
2017-06-12T14:40:54.167Z,2.90
2017-06-12T14:43:20.266Z,3.27
2017-06-12T14:45:46.993Z,3.20
2017-06-12T14:48:13.717Z,3.30
2017-06-12T14:50:40.399Z,3.00
2017-06-12T14:53:06.401Z,3.13
2017-06-12T14:55:32.369Z,3.17
2017-06-12T14:57:58.330Z,3.03
2017-06-12T15:00:24.414Z,3.53
2017-06-12T15:02:52.053Z,3.50
2017-06-12T15:05:18.109Z,3.27
2017-06-12T15:07:44.146Z,3.40
2017-06-12T15:10:10.157Z,3.70
2017-06-12T15:12:36.870Z,3.90
2017-06-12T15:15:03.637Z,3.47
2017-06-12T15:17:29.612Z,4.00
2017-06-12T15:19:56.341Z,3.03
2017-06-12T15:22:23.114Z,3.33
2017-06-12T15:24:49.086Z,3.50
2017-06-12T15:27:15.080Z,3.47
2017-06-12T15:29:41.798Z,3.20
2017-06-12T15:32:07.749Z,3.20
2017-06-12T15:34:33.729Z,3.87
2017-06-12T15:37:00.518Z,3.23
2017-06-12T15:39:26.477Z,3.73
2017-06-12T15:41:52.506Z,2.80
2017-06-12T15:44:18.559Z,3.87
2017-06-12T15:46:44.558Z,3.87
2017-06-12T15:49:10.541Z,3.43
2017-06-12T15:51:36.493Z,2.87
2017-06-12T15:54:03.269Z,3.00
2017-06-12T15:56:29.224Z,4.00
2017-06-12T15:58:55.181Z,3.50
2017-06-12T16:01:21.173Z,3.00
2017-06-12T16:03:47.125Z,3.77
2017-06-12T16:06:13.105Z,2.63
2017-06-12T16:08:39.109Z,3.63
2017-06-12T16:11:05.081Z,3.30
2017-06-12T16:13:31.081Z,4.00
2017-06-12T16:15:57.073Z,3.40
2017-06-12T16:18:23.035Z,3.20
2017-06-12T16:20:49.077Z,3.77
2017-06-12T16:23:15.116Z,3.60
2017-06-12T16:25:41.177Z,3.27
2017-06-12T16:28:07.209Z,2.90
2017-06-12T16:30:33.168Z,4.03
2017-06-12T16:32:59.877Z,3.97
2017-06-12T16:35:25.889Z,3.73
2017-06-12T16:37:52.607Z,3.57
2017-06-12T16:40:18.731Z,3.70
2017-06-12T16:42:45.473Z,3.63
2017-06-12T16:45:11.478Z,4.17
2017-06-12T16:47:38.177Z,4.53
2017-06-12T16:50:04.182Z,3.97
2017-06-12T16:52:30.208Z,3.40
2017-06-12T16:54:56.961Z,4.00
2017-06-12T16:57:22.948Z,4.50
2017-06-12T16:59:49.000Z,4.93
2017-06-12T17:02:14.941Z,4.60
2017-06-12T17:04:40.976Z,3.70
2017-06-12T17:07:07.739Z,4.10
2017-06-12T17:09:33.705Z,4.70
2017-06-12T17:12:00.418Z,4.23
2017-06-12T17:14:26.420Z,5.00
2017-06-12T17:16:52.387Z,4.60
2017-06-12T17:19:18.398Z,4.70
2017-06-12T17:21:45.133Z,4.60
2017-06-12T17:24:11.145Z,4.80
2017-06-12T17:26:37.105Z,4.90
2017-06-12T17:29:03.832Z,5.70
2017-06-12T17:31:30.585Z,4.90
2017-06-12T17:33:56.540Z,4.73
2017-06-12T17:36:22.548Z,5.50
2017-06-12T17:38:48.546Z,4.57
2017-06-12T17:41:14.572Z,6.10
2017-06-12T17:43:40.521Z,4.77
2017-06-12T17:46:06.469Z,4.73
2017-06-12T17:48:32.458Z,5.30
2017-06-12T17:50:58.449Z,5.30
2017-06-12T17:53:24.427Z,5.87
2017-06-12T17:55:50.460Z,5.30
2017-06-12T17:58:16.437Z,5.23
2017-06-12T18:00:42.464Z,5.43
2017-06-12T18:03:09.164Z,5.70
2017-06-12T18:05:35.456Z,5.30
2017-06-12T18:08:01.412Z,4.87
2017-06-12T18:10:28.105Z,5.00
2017-06-12T18:12:54.103Z,5.20
2017-06-12T18:15:20.085Z,4.90
2017-06-12T18:17:46.065Z,5.77
2017-06-12T18:20:12.018Z,4.90
2017-06-12T18:22:38.009Z,5.30
2017-06-12T18:25:03.965Z,4.37
2017-06-12T18:27:29.980Z,4.40
2017-06-12T18:29:56.005Z,4.87
2017-06-12T18:32:22.809Z,5.50
2017-06-12T18:34:48.916Z,5.47
2017-06-12T18:37:14.888Z,5.13
2017-06-12T18:39:40.836Z,5.73
2017-06-12T18:42:06.834Z,5.30
2017-06-12T18:44:32.785Z,5.53
2017-06-12T18:46:59.485Z,6.10
2017-06-12T18:49:25.464Z,6.23
2017-06-12T18:51:51.467Z,5.53
2017-06-12T18:54:17.452Z,5.50
2017-06-12T18:56:43.433Z,6.20
2017-06-12T18:59:10.180Z,5.03
2017-06-12T19:01:36.209Z,5.83
2017-06-12T19:04:02.181Z,5.73
2017-06-12T19:06:28.137Z,5.53
2017-06-12T19:08:54.265Z,5.23
2017-06-12T19:11:20.252Z,5.43
2017-06-12T19:13:46.193Z,6.40
2017-06-12T19:16:12.164Z,6.23
2017-06-12T19:18:38.113Z,5.90
2017-06-12T19:21:04.109Z,6.30
2017-06-12T19:23:30.065Z,6.07
2017-06-12T19:25:56.009Z,6.00
2017-06-12T19:28:22.007Z,5.90
2017-06-12T19:30:48.025Z,6.17
2017-06-12T19:33:14.038Z,6.90
2017-06-12T19:35:39.985Z,6.40
2017-06-12T19:38:05.979Z,6.10
2017-06-12T19:40:31.932Z,5.70
2017-06-12T19:42:57.881Z,6.07
2017-06-12T19:45:23.921Z,6.03
2017-06-12T19:47:50.649Z,6.97
2017-06-12T19:50:16.606Z,6.80
2017-06-12T19:52:42.601Z,6.93
2017-06-12T19:55:08.557Z,6.43
2017-06-12T19:57:34.506Z,7.40
2017-06-12T20:00:00.480Z,6.77
2017-06-12T20:02:26.434Z,6.43
2017-06-12T20:04:52.471Z,6.93
2017-06-12T20:07:18.487Z,7.60
2017-06-12T20:09:44.444Z,7.60
2017-06-12T20:12:10.416Z,7.13
2017-06-12T20:14:36.393Z,6.30
2017-06-12T20:17:02.397Z,7.47
2017-06-12T20:19:28.345Z,6.67
2017-06-12T20:21:54.429Z,6.23
2017-06-12T20:24:20.419Z,8.03
2017-06-12T20:26:46.373Z,7.40
2017-06-12T20:29:12.409Z,6.67
2017-06-12T20:31:38.349Z,6.90
2017-06-12T20:34:04.346Z,7.00
2017-06-12T20:36:30.339Z,6.17
2017-06-12T20:38:56.293Z,6.17
2017-06-12T20:41:22.297Z,7.37
2017-06-12T20:43:48.285Z,6.57
2017-06-12T20:46:14.233Z,7.30
2017-06-12T20:48:40.217Z,6.37
2017-06-12T20:51:06.166Z,7.20
2017-06-12T20:53:32.165Z,6.77
2017-06-12T20:55:58.111Z,6.27
2017-06-12T20:58:24.068Z,6.57
2017-06-12T21:00:50.138Z,7.40
2017-06-12T21:03:16.102Z,6.53
2017-06-12T21:05:42.057Z,6.90
2017-06-12T21:08:08.041Z,6.40
2017-06-12T21:10:34.737Z,7.20
2017-06-12T21:13:00.751Z,6.97
2017-06-12T21:15:26.703Z,6.90
2017-06-12T21:17:52.701Z,6.30
2017-06-12T21:20:18.662Z,6.50
2017-06-12T21:22:44.634Z,6.13
2017-06-12T21:25:10.613Z,6.10
2017-06-12T21:27:37.310Z,6.27
2017-06-12T21:30:03.315Z,6.70
2017-06-12T21:32:29.267Z,6.97
2017-06-12T21:34:55.214Z,6.47
2017-06-12T21:37:21.226Z,6.73
2017-06-12T21:39:47.173Z,6.87
2017-06-12T21:42:13.892Z,6.47
2017-06-12T21:44:39.878Z,7.27
2017-06-12T21:47:05.853Z,7.10
2017-06-12T21:49:31.801Z,6.37
2017-06-12T21:51:57.785Z,6.07
2017-06-12T21:54:23.778Z,6.73
2017-06-12T21:56:49.752Z,6.43
2017-06-12T21:59:16.469Z,6.60
2017-06-12T22:01:42.413Z,6.83
2017-06-12T22:04:08.406Z,6.50
2017-06-12T22:06:34.360Z,6.43
2017-06-12T22:09:00.346Z,8.17
2017-06-12T22:11:26.339Z,6.03
2017-06-12T22:13:52.318Z,6.17
2017-06-12T22:16:18.321Z,6.63
2017-06-12T22:18:44.297Z,6.07
2017-06-12T22:21:10.251Z,6.00
2017-06-12T22:23:37.013Z,5.87
2017-06-12T22:26:02.965Z,6.13
2017-06-12T22:28:28.926Z,6.00
2017-06-12T22:30:54.909Z,5.63
2017-06-12T22:33:21.609Z,6.00
2017-06-12T22:35:47.585Z,6.50
2017-06-12T22:38:13.533Z,6.70
2017-06-12T22:40:39.561Z,6.03
2017-06-12T22:43:13.234Z,6.33
2017-06-12T22:45:39.218Z,7.00
2017-06-12T22:48:05.173Z,5.40
2017-06-12T22:50:31.173Z,6.73
2017-06-12T22:52:57.861Z,6.30
2017-06-12T22:55:23.845Z,6.47
2017-06-12T22:57:49.873Z,5.77
2017-06-12T23:00:15.818Z,5.53
2017-06-12T23:02:42.541Z,5.50
2017-06-12T23:05:08.484Z,5.70
2017-06-12T23:07:34.468Z,5.53
2017-06-12T23:10:01.182Z,5.63
2017-06-12T23:12:27.160Z,6.27
2017-06-12T23:14:53.109Z,6.03
2017-06-12T23:17:19.853Z,6.23
2017-06-12T23:19:45.829Z,5.47
2017-06-12T23:22:11.781Z,6.57
2017-06-12T23:24:37.787Z,5.47
2017-06-12T23:27:03.741Z,5.33
2017-06-12T23:29:29.685Z,4.90
2017-06-12T23:31:55.662Z,5.43
2017-06-12T23:34:21.676Z,5.43
2017-06-12T23:36:47.617Z,4.80
2017-06-12T23:39:13.560Z,5.10
2017-06-12T23:41:39.593Z,6.00
2017-06-12T23:44:05.544Z,4.90
2017-06-12T23:46:31.497Z,6.00
2017-06-12T23:48:57.489Z,5.27
2017-06-12T23:51:23.487Z,6.30
2017-06-12T23:53:49.461Z,4.87
2017-06-12T23:56:15.441Z,5.80
2017-06-12T23:58:41.393Z,5.63
